Time;durP1;ratioP1;P1;durP2;ratioP2;P2;SDS_P1;SDS_P2;PMS_P1;PMS_P2;Temp;Humidity;BMP_temperature;BMP_pressure;BME280_temperature;BME280_humidity;BME280_pressure;Samples;Min_cycle;Max_cycle;Signal;HPM_P1;HPM_P2
2022/08/18 00:01:39;;;;;;;10.60;7.70;;;20.60;84.90;;;;;;5043400;28;20803;-72
2022/08/18 00:04:07;;;;;;;11.13;7.70;;;20.50;85.00;;;;;;5039452;28;21020;-71
2022/08/18 00:06:32;;;;;;;11.80;7.67;;;20.30;85.50;;;;;;5039056;28;20475;-72
2022/08/18 00:09:00;;;;;;;12.43;7.83;;;20.20;86.20;;;;;;5040326;28;20459;-71
2022/08/18 00:11:29;;;;;;;11.07;7.37;;;20.00;86.60;;;;;;5048779;28;20566;-72
2022/08/18 00:13:55;;;;;;;11.23;6.87;;;19.90;87.40;;;;;;5041611;28;20911;-72
2022/08/18 00:16:20;;;;;;;12.80;7.87;;;19.70;88.00;;;;;;5040068;28;20431;-72
2022/08/18 00:18:46;;;;;;;13.97;7.80;;;19.60;88.40;;;;;;5048217;28;20482;-73
2022/08/18 00:21:11;;;;;;;10.10;7.03;;;19.50;89.00;;;;;;5048746;28;20187;-71
2022/08/18 00:23:37;;;;;;;11.40;7.70;;;19.50;89.30;;;;;;5046094;28;20216;-71
2022/08/18 00:26:03;;;;;;;10.57;7.40;;;19.50;89.60;;;;;;5039044;28;20593;-72
2022/08/18 00:28:29;;;;;;;12.73;8.03;;;19.60;90.10;;;;;;5046391;28;20212;-73
2022/08/18 00:30:55;;;;;;;9.90;6.10;;;19.70;88.70;;;;;;5035579;28;20424;-72
2022/08/18 00:33:21;;;;;;;9.70;7.20;;;19.70;87.70;;;;;;5043403;28;20200;-72
2022/08/18 00:35:46;;;;;;;10.13;6.30;;;19.80;87.70;;;;;;5044543;28;20689;-72
2022/08/18 00:38:12;;;;;;;8.90;6.10;;;19.80;87.40;;;;;;5041535;28;20493;-71
2022/08/18 00:40:45;;;;;;;11.50;6.93;;;19.80;86.90;;;;;;5041663;28;20197;-72
2022/08/18 00:43:26;;;;;;;12.20;7.27;;;19.80;86.90;;;;;;5043570;28;20773;-71
2022/08/18 00:45:52;;;;;;;13.93;7.37;;;19.80;86.90;;;;;;5036577;28;20426;-73
2022/08/18 00:48:18;;;;;;;10.07;7.00;;;19.80;87.00;;;;;;5044300;28;20546;-71
2022/08/18 00:50:56;;;;;;;8.57;6.30;;;19.90;86.80;;;;;;5043271;28;20423;-72
2022/08/18 00:53:39;;;;;;;8.90;6.63;;;19.90;86.60;;;;;;5044030;28;20199;-72
2022/08/18 00:56:17;;;;;;;9.53;6.20;;;19.90;86.80;;;;;;5044045;28;20435;-72
2022/08/18 00:58:47;;;;;;;10.27;6.87;;;19.90;86.60;;;;;;5038894;28;20464;-71
2022/08/18 01:01:18;;;;;;;7.90;6.07;;;19.90;86.80;;;;;;5041703;28;20439;-72
2022/08/18 01:03:51;;;;;;;9.93;7.30;;;20.00;86.30;;;;;;5038555;28;20507;-73
2022/08/18 01:06:36;;;;;;;12.90;6.90;;;20.00;86.50;;;;;;5044011;28;20577;-72
2022/08/18 01:09:02;;;;;;;9.53;6.60;;;20.00;87.30;;;;;;5035984;28;20579;-72
2022/08/18 01:11:28;;;;;;;8.63;6.60;;;20.20;87.40;;;;;;5041560;28;20423;-71
2022/08/18 01:13:54;;;;;;;10.83;6.77;;;20.30;87.30;;;;;;5033147;28;20804;-73
2022/08/18 01:21:58;;;;;;;11.27;7.50;;;20.50;85.30;;;;;;5038531;28;20456;-71
2022/08/18 01:27:17;;;;;;;10.10;6.97;;;20.40;86.20;;;;;;5043274;28;20455;-73
2022/08/18 01:29:47;;;;;;;7.87;6.13;;;20.40;87.10;;;;;;5041427;28;20953;-72
2022/08/18 01:32:19;;;;;;;13.20;7.13;;;20.50;86.90;;;;;;5044155;28;20439;-71
2022/08/18 01:34:49;;;;;;;8.73;6.50;;;20.50;86.20;;;;;;5044633;28;20535;-72
2022/08/18 01:37:17;;;;;;;11.17;6.67;;;20.50;85.90;;;;;;5035150;28;20433;-72
2022/08/18 01:39:43;;;;;;;10.53;7.20;;;20.40;85.90;;;;;;5041623;28;20461;-73
2022/08/18 01:42:11;;;;;;;9.67;6.50;;;20.30;85.90;;;;;;5039427;28;20447;-71
2022/08/18 01:44:40;;;;;;;10.90;6.60;;;20.30;86.20;;;;;;5040829;28;20494;-71
2022/08/18 01:47:07;;;;;;;7.87;5.77;;;20.30;86.30;;;;;;5044159;28;20921;-74
2022/08/18 01:49:33;;;;;;;11.73;6.73;;;20.10;86.50;;;;;;5043823;28;20537;-72
2022/08/18 01:51:58;;;;;;;9.10;7.10;;;20.10;86.50;;;;;;5042704;28;20873;-72
2022/08/18 01:54:28;;;;;;;9.33;7.13;;;20.20;86.80;;;;;;5042609;28;20447;-72
2022/08/18 01:56:54;;;;;;;8.00;6.47;;;20.20;87.00;;;;;;5048236;28;20667;-72
2022/08/18 01:59:20;;;;;;;12.03;6.53;;;20.10;87.00;;;;;;5036479;28;20609;-72
2022/08/18 02:01:47;;;;;;;11.00;6.90;;;20.10;87.00;;;;;;5039190;28;20512;-72
2022/08/18 02:04:15;;;;;;;10.30;6.50;;;20.10;86.50;;;;;;5039366;28;20235;-72
2022/08/18 02:06:41;;;;;;;10.00;7.07;;;20.10;86.50;;;;;;5039292;28;20460;-72
2022/08/18 02:09:07;;;;;;;11.57;7.50;;;20.10;86.00;;;;;;5037511;28;20495;-72
2022/08/18 02:11:33;;;;;;;8.20;6.20;;;20.00;85.70;;;;;;5041974;28;20429;-72
2022/08/18 02:13:58;;;;;;;9.63;6.60;;;20.00;87.00;;;;;;5042974;28;20330;-71
2022/08/18 02:16:24;;;;;;;10.20;6.80;;;20.00;87.40;;;;;;5044276;28;20189;-71
2022/08/18 02:18:50;;;;;;;10.23;6.03;;;20.00;88.10;;;;;;5044160;28;20370;-71
2022/08/18 02:21:18;;;;;;;10.40;7.10;;;20.10;88.00;;;;;;5047180;28;20188;-72
2022/08/18 02:23:45;;;;;;;11.40;7.27;;;20.10;87.70;;;;;;5046704;28;20334;-70
2022/08/18 02:26:13;;;;;;;10.60;7.13;;;20.20;87.40;;;;;;5044630;28;20507;-71
2022/08/18 02:28:39;;;;;;;12.23;7.13;;;20.00;87.10;;;;;;5036233;28;20467;-71
2022/08/18 02:31:06;;;;;;;12.57;7.73;;;20.10;86.60;;;;;;5043115;28;20420;-71
2022/08/18 02:33:32;;;;;;;8.17;6.80;;;20.10;85.90;;;;;;5032658;28;20189;-72
2022/08/18 02:35:58;;;;;;;9.97;7.40;;;20.00;85.60;;;;;;5041350;28;20434;-72
2022/08/18 02:38:24;;;;;;;11.37;7.03;;;20.00;85.50;;;;;;5042729;28;21044;-70
2022/08/18 02:40:57;;;;;;;9.30;6.40;;;20.00;85.60;;;;;;5043091;28;20316;-72
2022/08/18 02:43:23;;;;;;;9.10;6.97;;;20.00;85.70;;;;;;5038498;28;20274;-72
2022/08/18 02:45:49;;;;;;;10.30;7.00;;;20.00;85.70;;;;;;5039100;28;20902;-71
2022/08/18 02:48:14;;;;;;;12.33;6.83;;;19.90;86.60;;;;;;5032783;28;20744;-72
2022/08/18 02:50:46;;;;;;;10.07;6.47;;;19.90;86.50;;;;;;5036977;28;20189;-71
2022/08/18 02:53:22;;;;;;;10.37;7.57;;;19.80;86.80;;;;;;5035531;28;20189;-72
2022/08/18 02:55:47;;;;;;;10.00;6.93;;;19.70;87.30;;;;;;5033430;28;20431;-71
2022/08/18 02:58:13;;;;;;;10.10;7.00;;;19.60;87.60;;;;;;5038518;28;20470;-71
2022/08/18 03:00:39;;;;;;;11.53;6.80;;;19.60;87.70;;;;;;5047386;28;20188;-70
2022/08/18 03:03:05;;;;;;;9.60;6.60;;;19.60;87.80;;;;;;5038797;28;20208;-71
2022/08/18 03:05:30;;;;;;;8.87;6.43;;;19.50;88.00;;;;;;5036990;28;20242;-70
2022/08/18 03:07:56;;;;;;;10.50;7.37;;;19.50;88.30;;;;;;5042652;28;21037;-70
2022/08/18 03:10:22;;;;;;;11.23;7.17;;;19.40;88.70;;;;;;5037522;28;20578;-71
2022/08/18 03:12:47;;;;;;;11.17;7.33;;;19.40;88.70;;;;;;5044151;28;20270;-71
2022/08/18 03:15:13;;;;;;;10.63;6.90;;;19.40;88.60;;;;;;5031689;28;20189;-71
2022/08/18 03:17:38;;;;;;;11.70;7.77;;;19.40;88.90;;;;;;5040738;28;20189;-71
2022/08/18 03:20:05;;;;;;;9.73;6.33;;;19.40;88.60;;;;;;5040023;28;20188;-71
2022/08/18 03:22:31;;;;;;;11.40;6.40;;;19.40;88.60;;;;;;5042349;28;20193;-71
2022/08/18 03:24:57;;;;;;;11.70;7.20;;;19.50;88.60;;;;;;5037416;28;20450;-70
2022/08/18 03:27:23;;;;;;;11.37;7.50;;;19.50;88.10;;;;;;5043240;28;20237;-73
2022/08/18 03:29:49;;;;;;;11.87;7.73;;;19.60;88.00;;;;;;5038194;28;20193;-71
2022/08/18 03:32:16;;;;;;;8.43;6.87;;;19.60;87.80;;;;;;5049958;28;20426;-71
2022/08/18 03:34:42;;;;;;;10.70;7.20;;;19.60;87.80;;;;;;5039166;28;20515;-71
2022/08/18 03:37:08;;;;;;;11.17;6.90;;;19.50;88.00;;;;;;5045953;28;20435;-71
2022/08/18 03:39:34;;;;;;;10.43;7.13;;;19.60;88.10;;;;;;5044551;28;20463;-71
2022/08/18 03:42:00;;;;;;;10.27;6.70;;;19.60;87.80;;;;;;5042021;28;20447;-71
2022/08/18 03:44:31;;;;;;;8.77;6.40;;;19.60;88.10;;;;;;5039282;28;20530;-71
2022/08/18 03:46:56;;;;;;;13.37;7.90;;;19.70;87.60;;;;;;5043274;28;20420;-73
2022/08/18 03:49:23;;;;;;;10.60;6.50;;;19.70;87.70;;;;;;5037839;28;20451;-72
2022/08/18 03:51:50;;;;;;;10.10;6.73;;;19.70;87.70;;;;;;5042190;28;20199;-73
2022/08/18 03:54:17;;;;;;;10.30;7.27;;;19.70;88.00;;;;;;5043243;28;20439;-72
2022/08/18 03:56:45;;;;;;;10.00;6.57;;;19.60;88.30;;;;;;5044719;28;20828;-72
2022/08/18 03:59:16;;;;;;;11.70;7.00;;;19.60;88.70;;;;;;5044301;28;20897;-72
2022/08/18 04:01:43;;;;;;;11.40;7.57;;;19.70;88.60;;;;;;5038555;28;20507;-71
2022/08/18 04:04:11;;;;;;;12.57;7.13;;;19.70;88.40;;;;;;5041527;28;20812;-72
2022/08/18 04:06:43;;;;;;;11.63;7.07;;;19.70;88.60;;;;;;5038981;28;20768;-72
2022/08/18 04:09:12;;;;;;;9.70;6.73;;;19.70;89.00;;;;;;5040897;28;21009;-71
2022/08/18 04:11:42;;;;;;;12.13;7.30;;;19.80;89.00;;;;;;5036892;28;20427;-71
2022/08/18 04:14:09;;;;;;;10.40;7.00;;;19.80;88.70;;;;;;5040758;28;20506;-71
2022/08/18 04:16:36;;;;;;;11.93;7.33;;;19.80;88.30;;;;;;5034558;28;20838;-71
2022/08/18 04:19:03;;;;;;;13.73;8.00;;;19.80;88.10;;;;;;5044207;28;20475;-73
2022/08/18 04:21:31;;;;;;;11.83;7.37;;;19.70;88.10;;;;;;5046581;28;20438;-71
2022/08/18 04:24:01;;;;;;;12.57;6.73;;;19.70;88.10;;;;;;5044659;28;20570;-72
2022/08/18 04:26:27;;;;;;;11.03;7.40;;;19.70;88.10;;;;;;5033982;28;20435;-71
2022/08/18 04:28:53;;;;;;;12.93;7.40;;;19.80;87.80;;;;;;5042394;28;20538;-71
2022/08/18 04:31:23;;;;;;;10.20;7.70;;;19.80;87.80;;;;;;5037082;28;20199;-72
2022/08/18 04:33:49;;;;;;;11.60;8.00;;;19.70;87.80;;;;;;5039788;28;20189;-71
2022/08/18 04:36:16;;;;;;;10.10;7.23;;;19.70;87.80;;;;;;5043875;28;20435;-71
2022/08/18 04:38:42;;;;;;;12.37;8.20;;;19.70;88.00;;;;;;5047694;28;20458;-72
2022/08/18 04:41:11;;;;;;;8.77;7.10;;;19.70;88.00;;;;;;5040342;28;20985;-72
2022/08/18 04:43:37;;;;;;;10.17;7.60;;;19.80;87.80;;;;;;5041059;28;20513;-73
2022/08/18 04:46:02;;;;;;;11.40;7.80;;;19.70;87.80;;;;;;5040743;28;20863;-72
2022/08/18 04:48:32;;;;;;;12.50;7.30;;;19.80;88.10;;;;;;5046432;28;20299;-72
2022/08/18 04:51:11;;;;;;;10.30;6.77;;;19.90;87.80;;;;;;5036984;28;20653;-72
2022/08/18 04:53:44;;;;;;;10.10;7.30;;;19.90;87.70;;;;;;5035391;28;20460;-71
2022/08/18 04:56:27;;;;;;;13.00;7.60;;;20.00;87.70;;;;;;5039930;28;20435;-70
2022/08/18 04:58:58;;;;;;;10.80;7.00;;;19.90;87.60;;;;;;5035039;28;20467;-69
2022/08/18 05:01:28;;;;;;;11.07;7.00;;;19.90;87.60;;;;;;5038878;28;20436;-70
2022/08/18 05:03:56;;;;;;;11.13;7.07;;;20.00;87.30;;;;;;5034331;28;20502;-71
2022/08/18 05:06:24;;;;;;;11.40;8.33;;;20.10;86.90;;;;;;5043471;28;20954;-71
2022/08/18 05:08:52;;;;;;;11.77;7.80;;;20.20;86.20;;;;;;5039805;28;20490;-70
2022/08/18 05:11:18;;;;;;;11.07;7.97;;;20.30;85.50;;;;;;5045349;28;20442;-70
2022/08/18 05:13:43;;;;;;;10.37;7.90;;;20.20;85.60;;;;;;5042488;28;20421;-69
2022/08/18 05:16:09;;;;;;;12.73;7.60;;;20.30;85.60;;;;;;5041950;28;20183;-71
2022/08/18 05:18:39;;;;;;;13.10;8.07;;;20.20;85.60;;;;;;5047435;28;20597;-73
2022/08/18 05:21:13;;;;;;;12.50;7.47;;;20.20;85.60;;;;;;5036699;28;20218;-72
2022/08/18 05:23:40;;;;;;;11.93;7.07;;;20.20;86.00;;;;;;5042655;28;20454;-71
2022/08/18 05:26:07;;;;;;;11.23;7.77;;;20.20;85.90;;;;;;5039114;28;20448;-72
2022/08/18 05:28:36;;;;;;;11.23;7.50;;;20.20;85.90;;;;;;5046829;28;20462;-73
2022/08/18 05:31:14;;;;;;;11.83;8.17;;;20.20;85.90;;;;;;5037135;28;20447;-72
2022/08/18 05:33:40;;;;;;;13.53;8.57;;;20.20;85.70;;;;;;5046532;28;20427;-72
2022/08/18 05:36:34;;;;;;;11.50;7.77;;;20.20;85.70;;;;;;5034480;28;20428;-73
2022/08/18 05:39:02;;;;;;;13.33;7.07;;;20.20;85.70;;;;;;5042720;28;20471;-72
2022/08/18 05:41:33;;;;;;;12.53;7.63;;;20.30;85.30;;;;;;5042680;28;20518;-71
2022/08/18 05:44:00;;;;;;;13.50;8.73;;;20.30;85.50;;;;;;5041508;28;20507;-71
2022/08/18 05:46:54;;;;;;;8.00;6.80;;;20.40;85.00;;;;;;5046880;28;20435;-71
2022/08/18 05:49:21;;;;;;;11.47;7.43;;;20.50;84.40;;;;;;5006971;28;20467;-72
2022/08/18 05:51:50;;;;;;;9.80;7.13;;;20.50;83.60;;;;;;5019441;28;20437;-72
2022/08/18 05:57:13;;;;;;;11.70;7.40;;;20.60;83.40;;;;;;5018850;28;20486;-71
2022/08/18 05:59:41;;;;;;;11.60;7.67;;;20.70;83.30;;;;;;5019438;28;20845;-71
2022/08/18 06:02:07;;;;;;;15.20;8.27;;;20.70;83.00;;;;;;5019705;28;20520;-71
2022/08/18 06:04:48;;;;;;;11.57;8.37;;;20.70;83.10;;;;;;5014631;28;20595;-73
2022/08/18 06:07:19;;;;;;;10.77;7.57;;;20.60;83.40;;;;;;5021343;28;20199;-72
2022/08/18 06:09:53;;;;;;;14.93;8.70;;;20.70;83.30;;;;;;5024742;28;21045;-72
2022/08/18 06:12:25;;;;;;;14.60;8.90;;;20.60;82.70;;;;;;5001774;28;20436;-71
2022/08/18 06:15:13;;;;;;;13.53;8.70;;;20.60;82.80;;;;;;5021049;28;20442;-72
2022/08/18 06:18:06;;;;;;;17.83;9.43;;;20.70;82.80;;;;;;5010212;28;20434;-72
2022/08/18 06:20:51;;;;;;;13.30;9.00;;;20.90;82.70;;;;;;5037510;28;20968;-71
2022/08/18 06:23:52;;;;;;;12.47;8.40;;;21.00;82.20;;;;;;5009492;28;20491;-71
2022/08/18 06:26:24;;;;;;;12.23;8.03;;;21.20;81.70;;;;;;5029528;28;20431;-70
2022/08/18 06:29:03;;;;;;;12.77;8.30;;;21.30;81.10;;;;;;5039694;28;20488;-71
2022/08/18 06:31:39;;;;;;;13.80;9.03;;;21.40;80.50;;;;;;5043098;28;20425;-71
2022/08/18 06:34:14;;;;;;;12.50;8.43;;;21.40;80.60;;;;;;5038494;28;20849;-72
2022/08/18 06:36:59;;;;;;;11.90;8.37;;;21.40;81.10;;;;;;5040033;28;20488;-70
2022/08/18 06:39:30;;;;;;;13.47;8.53;;;21.60;80.60;;;;;;5035258;28;20462;-71
2022/08/18 06:41:56;;;;;;;14.00;9.27;;;21.70;80.00;;;;;;5035539;28;20444;-71
2022/08/18 06:44:44;;;;;;;12.07;8.13;;;21.70;79.60;;;;;;5043320;28;20554;-71
2022/08/18 06:47:33;;;;;;;11.43;8.17;;;21.50;80.60;;;;;;5039406;28;20187;-71
2022/08/18 06:50:10;;;;;;;15.47;9.23;;;21.50;81.20;;;;;;5030777;28;20450;-70
2022/08/18 06:52:49;;;;;;;12.57;8.53;;;21.70;80.30;;;;;;5043662;28;20928;-73
2022/08/18 06:55:17;;;;;;;17.23;9.37;;;21.70;80.30;;;;;;5041517;28;20678;-71
2022/08/18 06:57:56;;;;;;;14.80;10.17;;;21.60;80.20;;;;;;5049202;28;20461;-71
2022/08/18 07:00:24;;;;;;;18.23;10.57;;;21.60;79.60;;;;;;5042352;28;20449;-72
2022/08/18 07:03:00;;;;;;;18.30;9.83;;;21.70;79.90;;;;;;5050836;28;20428;-71
2022/08/18 07:05:29;;;;;;;15.50;10.07;;;21.70;79.60;;;;;;5043304;28;20452;-70
2022/08/18 07:08:20;;;;;;;15.40;9.50;;;21.50;79.70;;;;;;5051977;28;20524;-71
2022/08/18 07:10:49;;;;;;;11.53;8.53;;;21.70;79.60;;;;;;5048078;28;20432;-72
2022/08/18 07:13:24;;;;;;;15.00;8.00;;;21.80;79.70;;;;;;5042105;28;20477;-71
2022/08/18 07:15:51;;;;;;;14.00;9.60;;;22.10;79.20;;;;;;5042277;28;20783;-71
2022/08/18 07:18:26;;;;;;;13.80;9.27;;;22.20;77.80;;;;;;5044498;28;20488;-71
2022/08/18 07:21:00;;;;;;;15.67;9.70;;;22.20;77.30;;;;;;5042980;28;20797;-71
2022/08/18 07:23:32;;;;;;;15.47;8.43;;;22.20;77.70;;;;;;5041126;28;20874;-71
2022/08/18 07:26:10;;;;;;;12.57;8.60;;;22.30;77.10;;;;;;5039430;28;20415;-72
2022/08/18 07:28:40;;;;;;;13.63;8.90;;;22.50;76.10;;;;;;5041972;28;21217;-72
2022/08/18 07:31:12;;;;;;;14.77;9.17;;;22.60;75.50;;;;;;5042724;28;20468;-71
2022/08/18 07:33:42;;;;;;;12.53;8.50;;;22.50;75.90;;;;;;5035296;28;20919;-71
2022/08/18 07:36:09;;;;;;;12.00;8.40;;;22.50;75.90;;;;;;5042439;28;20479;-71
2022/08/18 07:38:43;;;;;;;14.53;9.30;;;22.40;76.10;;;;;;5040121;28;20479;-71
2022/08/18 07:41:20;;;;;;;14.60;9.60;;;22.40;76.40;;;;;;5042264;28;20433;-72
2022/08/18 07:43:52;;;;;;;13.43;9.00;;;22.00;78.00;;;;;;5047798;28;20461;-72
2022/08/18 07:46:37;;;;;;;11.47;8.03;;;21.90;78.10;;;;;;5049359;28;20521;-72
2022/08/18 07:49:05;;;;;;;11.87;7.93;;;22.00;77.80;;;;;;5043581;28;20464;-70
2022/08/18 07:51:58;;;;;;;12.50;8.33;;;22.20;76.50;;;;;;5043644;28;20966;-72
2022/08/18 07:54:34;;;;;;;10.50;7.90;;;22.20;75.80;;;;;;5041946;28;20426;-72
2022/08/18 07:56:59;;;;;;;11.43;7.63;;;22.00;76.50;;;;;;5040032;28;21097;-74
2022/08/18 07:59:25;;;;;;;11.23;6.87;;;21.70;78.00;;;;;;5044782;28;20556;-72
2022/08/18 08:01:59;;;;;;;13.80;9.23;;;21.60;78.60;;;;;;5035922;28;20262;-72
2022/08/18 08:04:47;;;;;;;13.27;8.07;;;21.60;78.70;;;;;;5041308;28;20306;-71
2022/08/18 08:07:37;;;;;;;17.53;9.33;;;21.70;78.40;;;;;;5039918;28;20798;-72
2022/08/18 08:10:28;;;;;;;10.60;7.80;;;21.50;79.00;;;;;;5040542;28;20839;-72
2022/08/18 08:13:16;;;;;;;12.80;8.37;;;21.50;79.50;;;;;;5042897;28;20659;-71
2022/08/18 08:15:56;;;;;;;11.97;8.87;;;21.50;79.50;;;;;;5039042;28;20456;-72
2022/08/18 08:18:53;;;;;;;11.60;8.60;;;21.50;79.50;;;;;;5043104;28;20606;-72
2022/08/18 08:21:21;;;;;;;12.70;8.73;;;21.40;79.50;;;;;;5033786;28;20427;-73
2022/08/18 08:24:15;;;;;;;10.60;7.77;;;21.50;79.60;;;;;;5042189;28;20504;-72
2022/08/18 08:26:59;;;;;;;12.47;9.07;;;21.70;78.90;;;;;;5040497;28;20430;-71
2022/08/18 08:29:53;;;;;;;15.10;8.47;;;21.80;78.40;;;;;;5041638;28;20537;-73
2022/08/18 08:32:50;;;;;;;19.30;9.70;;;21.90;78.30;;;;;;5041824;28;20542;-70
2022/08/18 08:35:22;;;;;;;11.67;8.50;;;21.80;78.40;;;;;;5040213;28;20430;-72
2022/08/18 08:37:55;;;;;;;14.23;9.17;;;21.90;78.30;;;;;;5042949;28;20512;-72
2022/08/18 08:40:51;;;;;;;13.23;8.57;;;21.80;78.90;;;;;;5037213;28;20421;-72
2022/08/18 08:43:36;;;;;;;15.73;9.63;;;21.90;78.90;;;;;;5038377;28;20465;-72
2022/08/18 08:46:18;;;;;;;13.13;8.27;;;22.10;78.10;;;;;;5045138;28;20422;-71
2022/08/18 08:48:55;;;;;;;12.10;8.90;;;22.30;77.10;;;;;;5041093;28;20609;-73
2022/08/18 08:51:42;;;;;;;11.93;9.43;;;22.40;76.80;;;;;;5044235;28;20440;-70
2022/08/18 08:54:19;;;;;;;15.10;8.93;;;22.50;76.80;;;;;;5038050;28;20482;-72
2022/08/18 08:56:48;;;;;;;11.80;8.27;;;22.30;77.10;;;;;;5042716;28;20417;-72
2022/08/18 08:59:17;;;;;;;13.97;8.30;;;22.30;77.80;;;;;;5043675;28;20467;-72
2022/08/18 09:01:46;;;;;;;14.50;8.80;;;22.80;77.30;;;;;;5045343;28;20461;-72
2022/08/18 09:04:49;;;;;;;14.63;9.90;;;22.90;75.20;;;;;;5061323;28;20455;-71
2022/08/18 09:07:31;;;;;;;16.07;9.13;;;22.80;75.90;;;;;;5053422;28;20427;-72
2022/08/18 09:10:23;;;;;;;14.83;9.60;;;22.50;76.80;;;;;;5042658;28;21113;-72
2022/08/18 09:12:52;;;;;;;13.30;8.80;;;22.70;76.70;;;;;;5035989;28;20421;-71
2022/08/18 09:15:35;;;;;;;14.13;9.40;;;22.70;76.40;;;;;;5037489;28;20490;-73
2022/08/18 09:18:14;;;;;;;15.83;9.80;;;22.60;77.10;;;;;;5041277;28;20585;-71
2022/08/18 09:20:58;;;;;;;13.33;9.50;;;23.00;76.10;;;;;;5037695;28;20515;-71
2022/08/18 09:23:29;;;;;;;15.90;9.97;;;22.70;76.80;;;;;;5040438;28;20516;-71
2022/08/18 09:25:59;;;;;;;12.20;9.10;;;22.40;78.00;;;;;;5039448;28;20980;-73
2022/08/18 09:28:28;;;;;;;14.90;9.47;;;22.30;78.60;;;;;;5041934;28;20471;-73
2022/08/18 09:31:04;;;;;;;14.43;9.13;;;22.50;78.00;;;;;;5053848;28;20494;-73
2022/08/18 09:33:39;;;;;;;13.33;10.37;;;22.60;78.30;;;;;;5043248;28;20484;-71
2022/08/18 09:36:31;;;;;;;14.27;9.90;;;22.60;78.00;;;;;;5042494;28;20986;-72
2022/08/18 09:41:58;;;;;;;15.83;9.10;;;22.80;77.60;;;;;;5038518;28;20525;-72
2022/08/18 09:44:45;;;;;;;16.60;10.70;;;23.10;77.10;;;;;;5037924;28;20466;-72
2022/08/18 09:47:32;;;;;;;12.67;9.27;;;23.30;76.20;;;;;;5038748;28;20945;-71
2022/08/18 09:50:27;;;;;;;15.20;9.20;;;23.60;75.80;;;;;;5030424;28;20455;-73
2022/08/18 09:53:13;;;;;;;15.17;9.90;;;24.00;74.30;;;;;;5035348;28;20426;-72
2022/08/18 09:55:50;;;;;;;14.90;9.80;;;23.80;74.50;;;;;;5035726;28;20436;-72
2022/08/18 09:58:25;;;;;;;13.60;10.30;;;23.90;74.60;;;;;;5040171;28;20489;-72
2022/08/18 10:01:18;;;;;;;14.43;10.40;;;23.70;75.70;;;;;;5043802;28;20412;-72
2022/08/18 10:04:13;;;;;;;16.00;12.17;;;23.20;77.40;;;;;;5036436;28;20781;-72
2022/08/18 10:06:42;;;;;;;14.33;10.50;;;23.40;77.10;;;;;;5039121;28;20418;-72
2022/08/18 10:09:29;;;;;;;15.33;10.57;;;23.50;77.10;;;;;;5039887;28;20567;-71
2022/08/18 10:11:55;;;;;;;17.50;10.63;;;23.80;76.70;;;;;;5043521;28;20414;-72
2022/08/18 10:14:45;;;;;;;15.80;10.63;;;23.70;76.50;;;;;;5035088;28;20417;-71
2022/08/18 10:17:53;;;;;;;16.80;11.47;;;23.80;75.90;;;;;;5033984;28;20433;-72
2022/08/18 10:21:08;;;;;;;15.23;10.40;;;23.60;76.40;;;;;;5019651;28;20452;-72
2022/08/18 10:23:51;;;;;;;13.10;9.67;;;23.40;77.10;;;;;;5006946;28;20618;-71
2022/08/18 10:26:29;;;;;;;15.40;10.87;;;23.90;75.70;;;;;;5009767;28;20420;-72
2022/08/18 10:28:59;;;;;;;20.30;11.50;;;24.10;74.50;;;;;;5010838;28;20564;-72
2022/08/18 10:31:26;;;;;;;19.13;12.47;;;24.00;74.60;;;;;;5011898;28;20550;-71
2022/08/18 10:33:55;;;;;;;17.50;11.57;;;23.70;75.20;;;;;;5011165;28;20446;-72
2022/08/18 10:36:38;;;;;;;17.90;12.70;;;23.30;77.00;;;;;;5010890;28;20441;-72
2022/08/18 10:39:11;;;;;;;17.43;11.23;;;23.80;75.90;;;;;;5009196;28;20480;-72
2022/08/18 10:41:44;;;;;;;17.90;11.40;;;24.00;75.10;;;;;;5015452;28;20459;-73
2022/08/18 10:44:15;;;;;;;16.97;12.30;;;24.10;74.60;;;;;;5015865;28;21091;-72
2022/08/18 10:46:42;;;;;;;17.00;11.80;;;24.20;74.00;;;;;;5009739;28;20466;-72
2022/08/18 10:49:11;;;;;;;16.17;10.67;;;24.30;73.90;;;;;;5010044;28;20817;-72
2022/08/18 10:51:54;;;;;;;14.03;11.00;;;24.00;74.90;;;;;;5012989;28;20443;-73
2022/08/18 10:54:26;;;;;;;18.53;13.00;;;24.30;73.70;;;;;;5006604;28;20514;-72
2022/08/18 10:56:56;;;;;;;17.57;12.17;;;23.90;74.30;;;;;;5007945;28;20526;-72
2022/08/18 10:59:37;;;;;;;18.47;12.60;;;23.90;74.60;;;;;;5017805;28;20524;-71
2022/08/18 11:02:22;;;;;;;17.30;11.50;;;24.30;72.40;;;;;;5054752;28;20444;-72
2022/08/18 11:04:50;;;;;;;20.73;12.33;;;24.50;71.70;;;;;;5045870;28;20496;-71
2022/08/18 11:07:26;;;;;;;16.43;10.40;;;24.50;72.10;;;;;;5048481;28;20427;-72
2022/08/18 11:09:56;;;;;;;15.40;11.37;;;24.50;71.30;;;;;;5044761;28;20448;-72
2022/08/18 11:12:59;;;;;;;13.80;10.53;;;24.30;71.40;;;;;;5050596;28;20972;-72
2022/08/18 11:16:03;;;;;;;16.83;11.80;;;24.30;71.70;;;;;;5042643;28;20471;-72
2022/08/18 11:18:29;;;;;;;14.13;10.83;;;24.10;72.10;;;;;;5041580;28;20474;-71
2022/08/18 11:21:26;;;;;;;18.87;12.10;;;24.40;71.40;;;;;;5049206;28;20442;-71
2022/08/18 11:24:06;;;;;;;15.20;11.97;;;24.60;70.20;;;;;;5042741;28;20461;-72
2022/08/18 11:26:42;;;;;;;16.83;11.83;;;24.50;70.70;;;;;;5046989;28;20430;-73
2022/08/18 11:29:37;;;;;;;18.03;12.27;;;24.70;70.20;;;;;;5043497;28;20498;-72
2022/08/18 11:32:24;;;;;;;15.27;11.60;;;25.10;69.10;;;;;;5043172;28;20455;-72
2022/08/18 11:35:11;;;;;;;16.70;11.97;;;25.00;68.90;;;;;;5048879;28;20917;-71
2022/08/18 11:37:45;;;;;;;15.57;11.70;;;25.00;68.90;;;;;;5036508;28;20793;-72
2022/08/18 11:40:23;;;;;;;21.30;12.83;;;24.90;69.50;;;;;;5041216;28;20551;-72
2022/08/18 11:43:05;;;;;;;24.10;13.00;;;24.70;69.90;;;;;;5037753;28;20432;-72
2022/08/18 11:45:53;;;;;;;18.37;13.30;;;24.80;69.50;;;;;;5040677;28;20436;-72
2022/08/18 11:48:25;;;;;;;17.77;12.40;;;24.40;71.00;;;;;;5045775;28;21089;-71
2022/08/18 11:51:02;;;;;;;19.07;13.20;;;24.40;71.10;;;;;;5071137;28;20435;-72
2022/08/18 11:53:49;;;;;;;19.47;13.00;;;24.70;69.80;;;;;;5068889;28;20501;-71
2022/08/18 11:56:28;;;;;;;16.60;12.00;;;24.60;69.70;;;;;;5044749;28;20433;-71
2022/08/18 11:59:00;;;;;;;21.30;12.47;;;24.90;68.60;;;;;;5049939;28;20471;-72
2022/08/18 12:01:37;;;;;;;17.60;12.80;;;24.80;69.40;;;;;;5039332;28;20438;-72
2022/08/18 12:04:15;;;;;;;16.93;12.53;;;25.00;69.10;;;;;;5043859;28;20466;-73
2022/08/18 12:06:44;;;;;;;18.17;11.87;;;24.80;68.80;;;;;;5040285;28;20456;-71
2022/08/18 12:09:19;;;;;;;19.10;13.03;;;24.70;69.10;;;;;;5040058;28;20510;-72
2022/08/18 12:11:52;;;;;;;20.90;12.80;;;25.00;67.90;;;;;;5039694;28;20434;-73
2022/08/18 12:14:21;;;;;;;18.33;12.40;;;24.90;68.50;;;;;;5054693;28;20420;-72
2022/08/18 12:16:48;;;;;;;17.87;12.83;;;25.00;67.30;;;;;;5057855;28;20424;-72
2022/08/18 12:19:14;;;;;;;18.27;11.50;;;25.00;67.50;;;;;;5054381;28;20481;-71
2022/08/18 12:21:43;;;;;;;13.87;10.60;;;25.30;65.80;;;;;;5043014;28;20452;-72
2022/08/18 12:24:19;;;;;;;15.70;11.67;;;25.50;65.30;;;;;;5042113;28;20479;-72
2022/08/18 12:26:46;;;;;;;14.73;11.30;;;25.70;64.10;;;;;;5044787;28;20427;-73
2022/08/18 12:29:11;;;;;;;18.97;13.40;;;26.00;63.90;;;;;;5039528;28;20481;-71
2022/08/18 12:31:38;;;;;;;23.63;12.40;;;26.30;63.10;;;;;;5040635;28;20432;-72
2022/08/18 12:34:03;;;;;;;21.07;12.03;;;26.10;64.10;;;;;;5037100;28;20192;-72
2022/08/18 12:36:30;;;;;;;17.93;13.50;;;26.10;64.70;;;;;;5046851;28;20490;-71
2022/08/18 12:38:56;;;;;;;17.90;12.57;;;25.80;65.70;;;;;;5046101;28;20324;-72
2022/08/18 12:41:21;;;;;;;18.20;12.37;;;26.20;65.00;;;;;;5041573;28;20810;-73
2022/08/18 12:43:47;;;;;;;15.23;10.40;;;26.00;64.80;;;;;;5037403;28;20250;-72
2022/08/18 12:46:13;;;;;;;17.10;11.47;;;25.60;64.50;;;;;;5040424;28;20191;-71
2022/08/18 12:48:38;;;;;;;17.00;10.80;;;25.60;64.10;;;;;;5032540;28;20728;-73
2022/08/18 12:51:05;;;;;;;13.57;10.30;;;25.70;63.20;;;;;;5040339;28;20558;-72
2022/08/18 12:53:31;;;;;;;13.50;10.40;;;26.00;62.20;;;;;;5033089;28;20944;-71
2022/08/18 12:55:56;;;;;;;17.60;11.33;;;25.80;63.50;;;;;;5047649;28;20417;-72
2022/08/18 12:58:22;;;;;;;12.93;9.97;;;25.70;63.20;;;;;;5032275;28;20215;-72
2022/08/18 13:00:48;;;;;;;15.80;10.57;;;25.80;63.70;;;;;;5049612;28;20745;-72
2022/08/18 13:03:13;;;;;;;14.60;10.87;;;26.30;62.50;;;;;;5042799;28;20222;-72
2022/08/18 13:05:39;;;;;;;17.03;12.07;;;26.60;61.50;;;;;;5042777;28;20723;-72
2022/08/18 13:08:12;;;;;;;17.13;12.10;;;26.50;61.90;;;;;;5036530;28;20218;-72
2022/08/18 13:10:38;;;;;;;17.53;12.87;;;26.20;62.30;;;;;;5040941;28;20530;-71
2022/08/18 13:13:04;;;;;;;17.10;12.30;;;26.20;62.50;;;;;;5040429;28;20442;-72
2022/08/18 13:15:32;;;;;;;16.23;10.93;;;26.60;61.00;;;;;;5035951;28;20705;-73
2022/08/18 13:17:57;;;;;;;15.80;11.23;;;26.90;60.70;;;;;;5036225;28;20473;-71
2022/08/18 13:20:23;;;;;;;15.23;11.17;;;27.20;59.60;;;;;;5044561;28;20822;-72